createdAt,value
2022-12-23T00:01:16.064Z,3.28
2022-12-23T00:11:20.162Z,3.52
2022-12-23T00:21:22.590Z,3.61
2022-12-23T00:31:25.478Z,3.47
2022-12-23T00:41:46.141Z,3.19
2022-12-23T00:51:48.355Z,3.04
2022-12-23T01:02:09.092Z,2.76
2022-12-23T01:12:11.456Z,2.50
2022-12-23T01:22:13.649Z,2.24
2022-12-23T01:32:15.833Z,2.16
2022-12-23T01:42:38.956Z,1.81
2022-12-23T01:53:02.987Z,1.65
2022-12-23T02:03:27.363Z,1.56
2022-12-23T02:13:39.216Z,1.61
2022-12-23T02:24:24.513Z,1.65
2022-12-23T02:34:29.584Z,1.60
2022-12-23T02:45:01.981Z,1.69
2022-12-23T02:55:10.856Z,1.78
2022-12-23T03:05:41.273Z,2.21
2022-12-23T03:15:50.588Z,2.37
2022-12-23T03:26:16.516Z,2.76
2022-12-23T03:36:24.857Z,3.39
2022-12-23T03:46:37.877Z,3.58
2022-12-23T03:56:47.348Z,3.92
2022-12-23T04:06:57.516Z,4.30
2022-12-23T04:16:59.828Z,4.31
2022-12-23T04:27:01.975Z,4.14
2022-12-23T04:37:04.157Z,4.18
2022-12-23T04:47:06.424Z,4.54
2022-12-23T04:57:08.687Z,5.02
2022-12-23T05:07:10.961Z,5.53
2022-12-23T05:17:13.106Z,5.61
2022-12-23T05:27:15.307Z,5.51
2022-12-23T05:37:17.474Z,5.69
2022-12-23T05:47:19.628Z,5.83
2022-12-23T05:57:22.055Z,5.86
2022-12-23T06:07:24.269Z,5.90
2022-12-23T06:17:27.102Z,5.96
2022-12-23T06:27:29.337Z,5.84
2022-12-23T06:37:31.528Z,5.75
2022-12-23T06:47:33.746Z,5.73
2022-12-23T06:57:35.946Z,5.66
2022-12-23T07:07:38.213Z,5.96
2022-12-23T07:17:41.015Z,6.08
2022-12-23T07:27:43.225Z,6.03
2022-12-23T07:37:45.778Z,6.25
2022-12-23T07:47:47.972Z,6.72
2022-12-23T07:57:51.384Z,6.97
2022-12-23T08:07:53.648Z,7.02
2022-12-23T08:17:56.755Z,7.00
2022-12-23T08:27:58.906Z,7.00
2022-12-23T08:38:01.067Z,7.04
2022-12-23T08:48:03.753Z,7.21
2022-12-23T08:58:06.365Z,7.53
2022-12-23T09:08:09.437Z,7.98
2022-12-23T09:18:12.327Z,8.19
2022-12-23T09:28:14.538Z,7.67
2022-12-23T09:38:17.050Z,7.27
2022-12-23T09:48:22.898Z,7.45
2022-12-23T09:59:00.084Z,7.56
2022-12-23T10:09:05.131Z,7.50
2022-12-23T10:19:12.385Z,7.65
2022-12-23T10:29:23.516Z,7.70
2022-12-23T10:39:40.867Z,8.06
2022-12-23T10:50:26.285Z,8.35
2022-12-23T11:00:29.757Z,8.56
2022-12-23T11:10:33.548Z,8.58
2022-12-23T11:20:37.285Z,8.52
2022-12-23T11:30:55.245Z,8.47
2022-12-23T11:40:58.947Z,8.65
2022-12-23T11:51:04.049Z,8.78
2022-12-23T12:01:14.933Z,8.71
2022-12-23T12:11:19.293Z,8.96
2022-12-23T12:21:28.443Z,8.66
2022-12-23T12:31:45.617Z,8.71
2022-12-23T12:41:58.525Z,8.09
2022-12-23T12:52:14.281Z,7.94
2022-12-23T13:02:28.491Z,7.77
2022-12-23T13:12:53.216Z,7.76
2022-12-23T13:23:26.979Z,7.76
2022-12-23T13:33:55.769Z,7.75
2022-12-23T13:44:18.931Z,7.64
2022-12-23T13:54:42.481Z,7.64
2022-12-23T14:04:59.172Z,7.53
2022-12-23T14:15:22.715Z,7.45
2022-12-23T14:25:53.723Z,7.19
2022-12-23T14:36:13.159Z,7.13
2022-12-23T14:46:34.044Z,7.06
2022-12-23T14:56:39.053Z,7.02
2022-12-23T15:06:45.277Z,7.00
2022-12-23T15:16:47.570Z,6.86
2022-12-23T15:27:24.587Z,6.82
2022-12-23T15:37:24.978Z,6.84
2022-12-23T15:47:36.593Z,6.81
2022-12-23T15:57:50.040Z,6.77
2022-12-23T16:08:14.147Z,6.78
2022-12-23T16:18:19.325Z,6.50
2022-12-23T16:28:26.632Z,6.49
2022-12-23T16:38:30.135Z,6.73
2022-12-23T16:48:42.345Z,6.51
2022-12-23T16:58:45.070Z,6.47
2022-12-23T17:08:47.955Z,6.37
2022-12-23T17:18:53.130Z,6.52
2022-12-23T17:28:55.957Z,6.66
2022-12-23T17:38:58.173Z,6.68
2022-12-23T17:49:00.356Z,6.84
2022-12-23T17:59:02.508Z,6.77
2022-12-23T18:09:04.674Z,6.87
2022-12-23T18:19:16.578Z,6.85
2022-12-23T18:29:18.837Z,6.73
2022-12-23T18:39:21.230Z,6.73
2022-12-23T18:49:23.507Z,6.66
2022-12-23T18:59:29.920Z,6.40
2022-12-23T19:09:32.559Z,6.41
2022-12-23T19:19:34.790Z,6.31
2022-12-23T19:29:36.954Z,6.46
2022-12-23T19:39:41.044Z,6.53
2022-12-23T19:49:43.367Z,6.63
2022-12-23T19:59:45.672Z,6.50
2022-12-23T20:09:47.870Z,6.57
2022-12-23T20:19:50.069Z,6.51
2022-12-23T20:29:52.243Z,6.36
2022-12-23T20:39:54.475Z,6.27
2022-12-23T20:49:56.720Z,6.14
2022-12-23T20:59:58.908Z,6.01
2022-12-23T21:10:01.097Z,5.90
2022-12-23T21:20:07.704Z,5.68
2022-12-23T21:40:12.224Z,5.56
2022-12-23T21:50:14.490Z,5.39
2022-12-23T22:00:16.839Z,5.35
2022-12-23T22:10:19.061Z,5.26
2022-12-23T22:20:21.468Z,5.10
2022-12-23T22:30:23.655Z,4.74
2022-12-23T22:40:25.914Z,4.51
2022-12-23T22:50:28.077Z,4.71
2022-12-23T23:00:30.339Z,4.50
2022-12-23T23:10:32.516Z,4.14
2022-12-23T23:20:34.696Z,3.61
2022-12-23T23:30:36.909Z,3.27
2022-12-23T23:40:39.445Z,3.63
2022-12-23T23:50:41.913Z,4.65
